2+ odds daily fixed game

Single Fixed Match Archive

Single Fixed Match Archive

Single Fixed Match Archive

JUNE 2022

DATE MATCH TIP ODDS FT
01.06.2022 Free Day
02.06.2022 CRB – CSA X 2.80 0 : 0
03.06.2022 Sturm Graz (Am) – WSC Wels 1 2.55 3 : 0
04.06.2022 Wolfurt – Rothis 2 2.95 1 : 2
05.06.2022 Wales – Ukraine X 3.10 1 : 0
06.06.2022 RSV Meinerzhagen – Vreden 1 2.40 1 : 0
07.06.2022 Germany – England X 3.00 1 : 1
08.06.2022 Rejiche – Monastir 1 3.10 2 : 0
09.06.2022 KV Reykjavik – Afturelding 1 3.10 2 : 1
10.06.2022 Bad Gleichenberg – Union Gurten 4+ 2.40 1 : 4
11.06.2022 Karlstad – Sandviken 2 2.45 0 : 3
12.06.2022 Temperley – Almirante Brown X 3.00 1 : 1
13.06.2022 Oddevold – Trollhattan X 3.50 0 : 1
14.06.2022 Poland – Belgium 2 2.50 0 : 1
15.06.2022 Swallows – Pretoria U. 1 2.60 1 : 0
16.06.2022 Atl. Nacional – Junior 1 2.50 2 : 1
17.06.2022 Vitebsk – Zhodino 2 2.50 0 : 1
18.06.2022 Enppi – Future FC 2 2.50 1 : 2
19.06.2022 ??? – ??? – : –
20.06.2022
21.06.2022
22.06.2022
23.06.2022
24.06.2022
25.06.2022
26.06.2022
27.06.2022
28.06.2022
29.06.2022
30.06.2022

MAY 2022

DATE MATCH TIP ODDS FT
01.05.2022 Coritiba – Fluminense 1 3.50 3 : 2
02.05.2022 Atlas – Laferrere X 2.80 0 : 0
03.05.2022 Bournemouth – Nottingham 1 2.30 1 : 0
04.05.2022 MuSa – SalPa 2 2.45 0 : 1
05.05.2022 Louletano – Esperanca de Lagos 4+ 3.30 5 : 1
06.05.2022 Libertad – Ind. Juniors 1 2.30 1 : 0
07.05.2022 LASK – Hartberg 4+ 2.50 3 : 3
08.05.2022 Venezia – Bologna 1 3.10 4 : 3
09.05.2022 Cobresal – Everton X 3.40 0 : 0
10.05.2022 U. Cluj – FC Hermannstadt 2 3.30 1 : 2
11.05.2022 Cartagena – Llaneros 2 3.10 0 : 4
12.05.2022 Odense – Viborg 2 3.20 1 : 1
13.05.2022 Ascoli – Benevento 2 2.60 0 : 1
14.05.2022 Skive – Middelfart 2 3.60 0 : 1
15.05.2022 Sturm Graz – Wolfsberger AC 2 3.40 1 : 4
16.05.2022 Juventus – Lazio 2 3.50 2 : 2
17.05.2022 Aschaffenburg – Schweinfurt 1 3.00 3 : 2
18.05.2022 Leones – Cartagena X 3.60 0 : 0
19.05.2022 Libertad – America de Quito 1 2.45 4 : 2
20.05.2022 Hellerup – Hillerod 2 2.40 1 : 2
21.05.2022 Coquimbo – U. Espanola 2 2.50 2 : 4
22.05.2022 Jammerbugt – F. Amager 1 3.50 3 : 2
23.05.2022 Barnechea – Deportes Temuco 1 2.55 2 : 0
24.05.2022 Spvgg Ansbach 09 – Eltersdorf 1 2.80 2 : 0
25.05.2022 SKA Khabarovsk – Khimki 1 3.05 1 : 0
26.05.2022 Vitesse – AZ Alkmaar 1 2.90 2 : 1
27.05.2022 Paradou – USM Alger 2 3.20 0 : 1
28.05.2022 CD Santa Cruz – S. Wanderers 1 2.55 2 : 0
29.05.2022 Levadia – Flora X 3.20 1 : 1
30.05.2022 Bamboutos FC – Eding Sport 2 2.50 1 : 2
31.05.2022 Everton – O’Higgins X 3.40 0 : 0

MARCH 2022

DATE MATCH TIP ODDS FT
01.03.2022 U. De Chile – O’Higgins 2 3.20 0 : 1
02.03.2022 Bochum – Freiburg 2 2.40 1 : 2
03.03.2022 Atlas – Pachuca 2 3.20 0 : 1
04.03.2022 Al Qanah – Wadi Degla X 2.75 1 : 1
05.03.2022 AS Roma – Atalanta 1 2.55 1 : 0
06.03.2022 Admira – Austria Vienna 2 2.45 1 : 2
07.03.2022 Cobresal – U. Catolica 1 2.70 3 : 1
08.03.2022 IJsselmeervogels – Spakenburg 4+ 2.40 2 : 2
09.03.2022 Venados – Cancun 1 2.40 1 : 0
10.03.2022 Sao Caetano – Linense 1 2.60 3 : 0
11.03.2022 Notts Co – Wrexham 2 2.60 1 : 2
12.03.2022 Prostejov – Usti nad Labem X 3.20 0 : 2
13.03.2022 Pisa – Cremonese 1 2.55 3 : 0
14.03.2022 Meppen – Duisburg 2 2.80 1 : 2
15.03.2022 Caernarfon – Flint 1 2.60 2 : 1
16.03.2022 Deportes Iquique – Magallanes X 3.20 1 : 1
17.03.2022 Bucaramanga – Dep. Cali 1 2.70 1 : 0
18.03.2022 Genoa – Torino 1 3.20 1 : 0
19.03.2022 Lewes – Bishop’s Stortford 2 2.90 0 : 1
20.03.2022 Venezia – Sampdoria 2 2.70 0 : 2
21.03.2022 Concarneau – Chateauroux X 3.00 0 : 0
22.03.2022 Yeovil – Bromley 1 2.70 2 : 1
23.03.2022 Santo Domingo – Ind. Juniors 2 3.40 0 : 1
24.03.2022 Alfter – Pesch 2 2.40 1 : 4
25.03.2022 Paraguay – Ecuador 1 3.40 3 : 1
26.03.2022 Camboriu – Figueirense 1 2.80 2 : 0
27.03.2022 Pereira – Ind. Medellin  X 3.30 1 : 1
28.03.2022 Hap. Ramat Gan – H. Akko 1 2.90 2 : 0
29.03.2022 Marchfeld – Wiener Sport-Club 1 3.20 3 : 1
30.03.2022 Picerno – Campobasso 1 3.00 3 : 2
31.03.2022 RSV Meinerzhagen – Clarholz X 4.00 0 : 0

FEBRUARY 2022

DATE MATCH TIP ODDS FT
01.02.2022 Yeovil – Weymouth X 3.50 1 : 1
02.02.2022 Sao Joseense – Parana 1 3.10 1 : 0
03.02.2022 Nacional-AM – Manauara 1 2.40 2 : 0
04.02.2022 Gent – Club Brugge KV 2 3.20 0 : 1
05.02.2022 Burton – Sheffield Wed 2 2.50 0 : 2
06.02.2022 Holstein Kiel – Dusseldorf 1 2.30 1 : 0
07.02.2022 Radomiak Radom – Wisla Plock X 3.40 1 : 1
08.02.2022 Accrington – Oxford Utd 1 2.80 2 : 0
09.02.2022 Inverness – Partick Thistle 4+ 4.00 3 : 3
10.02.2022 Chaves – Rio Ave 1 2.40 2 : 1
11.02.2022 Waasland-Beveren – Lierse K. 2 3.60 0 : 1
12.02.2022 La Equidad – Ind. Medellin 1 2.45 2 : 0
13.02.2022 Borgfeld – Habenhauser 1 2.75 4 : 2
14.02.2022 Fethiyespor – Ofspor 2 3.40 2 : 3
15.02.2022 Burton – Bolton 1 2.70 3 : 1
16.02.2022 U. Magdalena – Bucaramanga 2 3.50 0 : 1
17.02.2022 Patriotas – Once Caldas X 3.20 0 : 0
18.02.2022 Dep. Pasto – Dep. Cali 1 3.00 2 : 1
19.02.2022 Sporting Gagnoa – San Pedro 2 2.60 0 : 2
20.02.2022 Independiente Petroleros – Bolivar 1 2.60 1 : 0
21.02.2022 Goztepe – Galatasaray 2 2.50 2 : 3
22.02.2022 Uberlandia – Caldense 2 2.80 0 : 1
23.02.2022 Eastern Company – Al Masry 4+ 3.50 2 : 2
24.02.2022 Lys Sassandra – Bouake X 2.80 0 : 1
25.02.2022 Ameliano – General Caballero JLM 1 3.00 1 : 0
26.02.2022 Santa Cruz – The Strongest 2 2.50 1 : 2
27.02.2022 Austria Vienna – Wolfsberger AC 1 2.70 1 : 0
28.02.2022 Al Ittihad – El Gaish X 2.80 1 : 1

JANUARY 2022

DATE MATCH TIP ODDS FT
01.01.2022 Lewes – Bognor Regis 1 2.60 2 : 0
02.01.2022 Yeovil – Torquay 2 2.80 1 : 2
03.01.2022 Tondela – Moreirense 1 2.70 2 : 1
04.01.2022 Hartlepool – Bolton 1 3.40 1 : 0
05.01.2022 Unipomezia – Montespaccato  1 2.70 3 : 2
06.01.2022 Girona – Osasuna 1 2.70 1 : 0
07.01.2022 Free Day
08.01.2022 FK Pardubice – Ostrava 2 2.60 2 : 4
09.01.2022 Empoli – Sassuolo 2 2.60 1 : 5
10.01.2022 Bradford PA – Gateshead 4+ 2.80 2 : 4
11.01.2022 Kiryat Shmona – Maccabi Tel Aviv X 3.50 2 : 2
12.01.2022 Smyrnis – OFI Crete 2 2.70 0 : 3
13.01.2022 Arab Contractors – National Bank Egypt 1 3.20 1 : 0
14.01.2022 Brighton – Crystal Palace X 3.30 1 : 1
15.01.2022 Blyth – Gloucester 1 2.95  2 : 0
16.01.2022 Hull – Stoke  2 3.00 0 : 2
17.01.2022 El Raja – Said El Mahalla X 3.25 1 : 1
18.01.2022 Ross County – Motherwell 1 2.50 3 : 1
19.01.2022 Mosconia – Tuilla 2 2.30 2 : 4
20.01.2022 Celaya – Atlante X 2.80  1 : 1
21.01.2022 Cholet – Bourg en Bresse 1 3.50 2 : 1
22.01.2022 Beerschot VA – Leuven 1 3.00 3 : 1
23.01.2022 Free Day  –  –  –  –  –  –
24.01.2022 Caen – AC Ajaccio 1 3.00 2 : 0
25.01.2022 QPR – Swansea X 3.30 0 : 0
26.01.2022 Audax RJ – Nova Iguacu 1 3.40 1 : 0
27.01.2022 Dep. Cali – Deportes Tolima 2 3.60 0 : 1
28.01.2022 Boulogne – Red Star 2 2.75 0 : 4
29.01.2022 Lecco – Triestina 1  3.00 2 : 0
30.01.2022 Ponferradina – Tenerife 2 3.00 1 : 2
31.01.2022 Kiryat Shmona – Sakhnin 2  2.90 0 : 1

PREVIOUS MONTHS

> HERE <

Tags: , , , , , , , , , , , , , , , , , , , , , , , ,
Category: Football Single Fixed Archive